createdAt,value
2018-11-06T00:00:29.133Z,6.47
2018-11-06T00:03:02.413Z,6.30
2018-11-06T00:05:30.007Z,6.20
2018-11-06T00:07:57.687Z,6.50
2018-11-06T00:10:25.354Z,6.67
2018-11-06T00:12:53.005Z,5.80
2018-11-06T00:15:20.630Z,5.80
2018-11-06T00:17:48.369Z,5.80
2018-11-06T00:20:15.978Z,6.67
2018-11-06T00:22:43.571Z,5.70
2018-11-06T00:25:12.854Z,6.07
2018-11-06T00:27:40.666Z,5.37
2018-11-06T00:30:11.111Z,5.67
2018-11-06T00:32:39.360Z,5.90
2018-11-06T00:35:08.502Z,6.10
2018-11-06T00:37:36.168Z,5.77
2018-11-06T00:40:03.981Z,6.93
2018-11-06T00:42:31.632Z,5.30
2018-11-06T00:44:59.263Z,5.90
2018-11-06T00:47:26.924Z,6.10
2018-11-06T00:49:54.479Z,6.00
2018-11-06T00:52:22.103Z,5.97
2018-11-06T00:54:49.728Z,6.00
2018-11-06T00:57:17.347Z,5.87
2018-11-06T00:59:44.950Z,5.17
2018-11-06T01:02:12.632Z,6.30
2018-11-06T01:04:40.230Z,6.23
2018-11-06T01:07:07.876Z,5.10
2018-11-06T01:09:35.491Z,5.13
2018-11-06T01:12:03.121Z,5.57
2018-11-06T01:14:30.762Z,6.03
2018-11-06T01:16:58.385Z,5.83
2018-11-06T01:19:25.989Z,5.70
2018-11-06T01:21:53.627Z,5.50
2018-11-06T01:24:21.236Z,6.17
2018-11-06T01:26:48.883Z,6.27
2018-11-06T01:29:16.551Z,5.63
2018-11-06T01:31:44.179Z,6.60
2018-11-06T01:34:12.639Z,6.30
2018-11-06T01:36:40.256Z,5.40
2018-11-06T01:39:08.920Z,5.10
2018-11-06T01:41:36.527Z,4.70
2018-11-06T01:44:04.257Z,4.93
2018-11-06T01:46:31.877Z,5.30
2018-11-06T01:48:59.624Z,6.03
2018-11-06T01:51:27.200Z,5.47
2018-11-06T01:53:54.831Z,6.17
2018-11-06T01:56:22.497Z,5.00
2018-11-06T01:58:50.101Z,5.53
2018-11-06T02:01:17.702Z,5.67
2018-11-06T02:03:45.307Z,5.57
2018-11-06T02:06:12.953Z,5.27
2018-11-06T02:08:40.687Z,5.33
2018-11-06T02:11:08.245Z,6.10
2018-11-06T02:13:35.846Z,5.43
2018-11-06T02:16:03.518Z,5.30
2018-11-06T02:18:31.160Z,5.13
2018-11-06T02:20:58.765Z,5.33
2018-11-06T02:23:26.364Z,5.43
2018-11-06T02:25:54.048Z,5.70
2018-11-06T02:28:21.710Z,4.90
2018-11-06T02:30:49.361Z,5.17
2018-11-06T02:33:16.944Z,5.20
2018-11-06T02:35:44.556Z,5.30
2018-11-06T02:38:12.174Z,5.83
2018-11-06T02:40:39.764Z,5.00
2018-11-06T02:43:07.398Z,6.07
2018-11-06T02:45:35.016Z,5.07
2018-11-06T02:48:02.662Z,6.03
2018-11-06T02:50:30.240Z,5.37
2018-11-06T02:52:57.870Z,5.67
2018-11-06T02:55:25.495Z,5.27
2018-11-06T02:57:53.168Z,4.70
2018-11-06T03:00:20.728Z,5.47
2018-11-06T03:02:48.398Z,6.57
2018-11-06T03:05:16.099Z,6.03
2018-11-06T03:07:43.681Z,5.40
2018-11-06T03:10:12.362Z,5.60
2018-11-06T03:12:41.197Z,4.17
2018-11-06T03:15:09.698Z,5.60
2018-11-06T03:17:37.415Z,5.87
2018-11-06T03:20:05.036Z,5.57
2018-11-06T03:22:32.689Z,4.93
2018-11-06T03:25:00.327Z,5.67
2018-11-06T03:27:28.067Z,5.23
2018-11-06T03:29:55.707Z,5.30
2018-11-06T03:32:23.310Z,5.50
2018-11-06T03:34:50.935Z,6.13
2018-11-06T03:37:18.599Z,4.90
2018-11-06T03:39:46.206Z,5.37
2018-11-06T03:42:13.837Z,5.90
2018-11-06T03:44:41.464Z,5.47
2018-11-06T03:47:09.134Z,5.40
2018-11-06T03:49:36.793Z,6.07
2018-11-06T03:52:04.722Z,5.10
2018-11-06T03:54:32.472Z,5.30
2018-11-06T03:57:00.068Z,5.77
2018-11-06T03:59:27.695Z,5.43
2018-11-06T04:01:55.336Z,6.20
2018-11-06T04:04:22.917Z,5.57
2018-11-06T04:06:50.659Z,6.30
2018-11-06T04:09:18.232Z,5.43
2018-11-06T04:11:45.804Z,5.70
2018-11-06T04:14:13.383Z,5.77
2018-11-06T04:16:41.021Z,5.33
2018-11-06T04:19:09.079Z,5.23
2018-11-06T04:21:39.606Z,6.10
2018-11-06T04:24:10.598Z,4.63
2018-11-06T04:26:38.664Z,5.70
2018-11-06T04:29:07.424Z,5.50
2018-11-06T04:31:36.060Z,5.57
2018-11-06T04:34:03.647Z,5.83
2018-11-06T04:36:31.361Z,5.83
2018-11-06T04:38:59.377Z,5.67
2018-11-06T04:41:27.220Z,5.80
2018-11-06T04:43:54.832Z,5.40
2018-11-06T04:46:23.039Z,5.23
2018-11-06T04:48:51.128Z,6.40
2018-11-06T04:51:25.386Z,7.30
2018-11-06T04:53:57.466Z,5.27
2018-11-06T04:56:25.480Z,5.90
2018-11-06T04:58:53.137Z,4.33
2018-11-06T05:01:20.869Z,5.10
2018-11-06T05:03:48.536Z,4.83
2018-11-06T05:06:17.237Z,5.13
2018-11-06T05:08:45.192Z,4.70
2018-11-06T05:11:13.299Z,5.40
2018-11-06T05:13:40.997Z,4.83
2018-11-06T05:16:08.636Z,5.17
2018-11-06T05:18:36.231Z,5.80
2018-11-06T05:21:04.711Z,5.10
2018-11-06T05:23:32.320Z,4.83
2018-11-06T05:25:59.962Z,4.37
2018-11-06T05:28:27.839Z,5.30
2018-11-06T05:30:55.479Z,4.97
2018-11-06T05:33:23.045Z,6.13
2018-11-06T05:35:50.684Z,5.97
2018-11-06T05:38:18.305Z,5.50
2018-11-06T05:41:04.421Z,5.00
2018-11-06T05:43:32.161Z,4.90
2018-11-06T05:45:59.768Z,4.67
2018-11-06T05:48:27.410Z,4.63
2018-11-06T05:50:55.023Z,5.33
2018-11-06T05:53:22.722Z,4.83
2018-11-06T05:55:50.449Z,7.20
2018-11-06T05:58:18.096Z,5.33
2018-11-06T06:00:46.155Z,5.23
2018-11-06T06:03:13.927Z,5.03
2018-11-06T06:05:41.620Z,6.10
2018-11-06T06:08:09.281Z,5.77
2018-11-06T06:10:37.285Z,5.80
2018-11-06T06:13:05.295Z,5.27
2018-11-06T06:15:32.976Z,5.77
2018-11-06T06:18:00.644Z,5.60
2018-11-06T06:20:28.317Z,5.43
2018-11-06T06:22:56.038Z,5.67
2018-11-06T06:25:23.679Z,5.23
2018-11-06T06:27:51.364Z,6.00
2018-11-06T06:30:18.998Z,5.40
2018-11-06T06:32:46.652Z,6.60
2018-11-06T06:35:14.348Z,5.80
2018-11-06T06:37:42.256Z,7.17
2018-11-06T06:40:11.887Z,6.37
2018-11-06T06:42:39.606Z,6.97
2018-11-06T06:45:10.271Z,6.03
2018-11-06T06:47:37.991Z,6.67
2018-11-06T06:50:07.540Z,6.87
2018-11-06T06:52:35.225Z,7.20
2018-11-06T06:55:03.258Z,5.50
2018-11-06T06:57:36.582Z,5.93
2018-11-06T07:00:04.790Z,5.90
2018-11-06T07:02:32.468Z,7.03
2018-11-06T07:05:00.089Z,6.30
2018-11-06T07:07:27.669Z,6.70
2018-11-06T07:09:55.254Z,6.60
2018-11-06T07:12:22.888Z,6.20
2018-11-06T07:14:50.612Z,6.10
2018-11-06T07:17:18.245Z,6.10
2018-11-06T07:19:45.876Z,6.73
2018-11-06T07:22:13.489Z,7.07
2018-11-06T07:24:41.064Z,7.23
2018-11-06T07:27:08.736Z,7.60
2018-11-06T07:29:36.368Z,6.80
2018-11-06T07:32:04.231Z,7.83
2018-11-06T07:34:31.961Z,7.70
2018-11-06T07:36:59.549Z,7.37
2018-11-06T07:39:27.186Z,8.03
2018-11-06T07:41:54.873Z,7.93
2018-11-06T07:44:22.529Z,7.63
2018-11-06T07:46:50.112Z,7.60
2018-11-06T07:49:17.711Z,6.93
2018-11-06T07:51:45.379Z,5.80
2018-11-06T07:54:12.989Z,6.73
2018-11-06T07:56:40.649Z,7.50
2018-11-06T07:59:08.798Z,6.73
2018-11-06T08:01:37.000Z,6.70
2018-11-06T08:04:04.815Z,7.40
2018-11-06T08:06:32.406Z,6.63
2018-11-06T08:09:00.132Z,6.60
2018-11-06T08:11:27.766Z,6.13
2018-11-06T08:13:55.384Z,6.70
2018-11-06T08:16:23.025Z,6.20
2018-11-06T08:18:50.656Z,6.37
2018-11-06T08:21:18.277Z,7.00
2018-11-06T08:23:45.977Z,6.20
2018-11-06T08:26:13.542Z,6.30
2018-11-06T08:28:41.338Z,6.77
2018-11-06T08:31:09.103Z,6.27
2018-11-06T08:33:36.644Z,6.23
2018-11-06T08:36:04.284Z,5.43
2018-11-06T08:38:31.904Z,7.20
2018-11-06T08:40:59.542Z,7.10
2018-11-06T08:43:27.194Z,6.93
2018-11-06T08:45:54.883Z,6.03
2018-11-06T08:48:22.495Z,6.40
2018-11-06T08:50:50.193Z,5.80
2018-11-06T08:53:17.836Z,6.97
2018-11-06T08:55:45.460Z,6.53
2018-11-06T08:58:13.139Z,6.13
2018-11-06T09:00:40.719Z,6.53
2018-11-06T09:03:08.361Z,5.90
2018-11-06T09:05:36.110Z,5.80
2018-11-06T09:08:03.696Z,6.30
2018-11-06T09:10:31.361Z,6.03
2018-11-06T09:12:58.949Z,7.30
2018-11-06T09:15:26.560Z,6.60
2018-11-06T09:17:54.176Z,6.40
2018-11-06T09:20:21.816Z,6.60
2018-11-06T09:22:49.517Z,5.83
2018-11-06T09:25:18.238Z,6.50
2018-11-06T09:27:45.830Z,5.57
2018-11-06T09:30:14.770Z,5.80
2018-11-06T09:32:42.396Z,5.70
2018-11-06T09:35:11.073Z,6.00
2018-11-06T09:37:38.941Z,5.00
2018-11-06T09:40:08.053Z,5.63
2018-11-06T09:42:35.756Z,5.87
2018-11-06T09:45:03.546Z,5.87
2018-11-06T09:47:31.189Z,5.63
2018-11-06T09:49:58.785Z,5.70
2018-11-06T09:52:26.427Z,5.20
2018-11-06T09:54:54.066Z,5.83
2018-11-06T09:57:21.702Z,5.10
2018-11-06T09:59:49.348Z,5.93
2018-11-06T10:02:17.004Z,5.87
2018-11-06T10:04:44.716Z,5.20
2018-11-06T10:07:12.569Z,5.63
2018-11-06T10:09:39.961Z,5.47
2018-11-06T10:12:07.605Z,5.40
2018-11-06T10:14:35.209Z,5.00
2018-11-06T10:17:02.826Z,5.30
2018-11-06T10:19:30.959Z,5.47
2018-11-06T10:21:58.815Z,5.17
2018-11-06T10:24:26.467Z,5.00
2018-11-06T10:26:54.039Z,5.60
2018-11-06T10:29:21.736Z,5.00
2018-11-06T10:31:49.509Z,5.80
2018-11-06T10:34:17.168Z,5.40
2018-11-06T10:36:44.789Z,5.40
2018-11-06T10:39:13.317Z,5.27
2018-11-06T10:41:41.016Z,5.27
2018-11-06T10:44:08.715Z,5.23
2018-11-06T10:46:36.572Z,5.77
2018-11-06T10:49:04.417Z,5.37
2018-11-06T10:51:32.105Z,5.50
2018-11-06T10:53:59.699Z,5.37
2018-11-06T10:56:27.368Z,5.00
2018-11-06T10:58:54.981Z,5.17
2018-11-06T11:01:28.329Z,5.53
2018-11-06T11:04:01.475Z,4.80
2018-11-06T11:06:29.173Z,5.77
2018-11-06T11:08:56.927Z,5.40
2018-11-06T11:11:24.512Z,4.67
2018-11-06T11:13:52.152Z,4.77
2018-11-06T11:16:19.748Z,4.23
2018-11-06T11:18:47.356Z,4.27
2018-11-06T11:21:15.032Z,5.50
2018-11-06T11:23:42.692Z,6.00
2018-11-06T11:26:10.328Z,5.13
2018-11-06T11:28:37.982Z,5.20
2018-11-06T11:31:11.604Z,4.43
2018-11-06T11:33:39.474Z,5.40
2018-11-06T11:36:07.229Z,5.50
2018-11-06T11:38:34.833Z,5.57
2018-11-06T11:41:02.559Z,5.10
2018-11-06T11:43:30.301Z,5.03
2018-11-06T11:45:58.075Z,5.43
2018-11-06T11:48:25.655Z,5.20
2018-11-06T11:50:53.330Z,5.10
2018-11-06T11:53:20.963Z,4.63
2018-11-06T11:55:48.544Z,6.43
2018-11-06T11:58:16.176Z,6.90
2018-11-06T12:00:43.871Z,5.77
2018-11-06T12:03:11.476Z,5.90
2018-11-06T12:05:39.683Z,6.53
2018-11-06T12:08:07.332Z,7.30
2018-11-06T12:10:35.002Z,8.13
2018-11-06T12:13:02.636Z,6.67
2018-11-06T12:15:30.223Z,8.17
2018-11-06T12:17:57.945Z,7.33
2018-11-06T12:20:25.604Z,7.10
2018-11-06T12:22:53.208Z,8.13
2018-11-06T12:25:21.045Z,8.83
2018-11-06T12:27:48.476Z,7.83
2018-11-06T12:30:17.021Z,7.03
2018-11-06T12:32:44.744Z,7.40
2018-11-06T12:35:13.536Z,7.53
2018-11-06T12:37:41.306Z,7.00
2018-11-06T12:40:12.756Z,7.20
2018-11-06T12:42:40.782Z,8.10
2018-11-06T12:45:10.012Z,6.43
2018-11-06T12:47:37.806Z,7.93
2018-11-06T12:50:06.576Z,6.13
2018-11-06T12:52:34.200Z,7.13
2018-11-06T12:55:01.819Z,6.60
2018-11-06T12:57:29.576Z,6.40
2018-11-06T12:59:57.184Z,5.77
2018-11-06T13:02:24.792Z,6.10
2018-11-06T13:04:52.412Z,6.60
2018-11-06T13:07:20.000Z,6.20
2018-11-06T13:09:47.662Z,6.70
2018-11-06T13:12:15.495Z,6.07
2018-11-06T13:14:43.128Z,6.67
2018-11-06T13:17:10.857Z,6.67
2018-11-06T13:19:38.653Z,7.77
2018-11-06T13:22:06.978Z,6.70
2018-11-06T13:24:34.617Z,7.00
2018-11-06T13:27:02.339Z,6.27
2018-11-06T13:29:30.017Z,6.27
2018-11-06T13:31:57.876Z,7.27
2018-11-06T13:34:25.518Z,6.73
2018-11-06T13:36:53.157Z,6.70
2018-11-06T13:39:20.870Z,7.20
2018-11-06T13:41:48.479Z,5.73
2018-11-06T13:44:16.269Z,5.93
2018-11-06T13:46:43.942Z,5.40
2018-11-06T13:49:11.531Z,6.20
2018-11-06T13:51:39.142Z,7.00
2018-11-06T13:54:06.782Z,6.00
2018-11-06T13:56:34.407Z,6.73
2018-11-06T13:59:02.063Z,5.70
2018-11-06T14:01:29.692Z,7.50
2018-11-06T14:03:57.301Z,7.40
2018-11-06T14:06:24.937Z,6.60
2018-11-06T14:08:52.613Z,7.00
2018-11-06T14:11:20.255Z,6.40
2018-11-06T14:13:47.917Z,6.93
2018-11-06T14:16:15.589Z,6.57
2018-11-06T14:18:43.194Z,6.83
2018-11-06T14:21:10.965Z,6.10
2018-11-06T14:23:38.576Z,6.67
2018-11-06T14:26:06.425Z,5.50
2018-11-06T14:28:34.064Z,7.33
2018-11-06T14:31:01.690Z,6.23
2018-11-06T14:33:29.466Z,6.63
2018-11-06T14:35:57.132Z,5.83
2018-11-06T14:38:24.803Z,5.97
2018-11-06T14:40:52.457Z,5.50
2018-11-06T14:43:20.161Z,5.70
2018-11-06T14:45:47.754Z,5.97
2018-11-06T14:48:15.444Z,6.03
2018-11-06T14:50:43.052Z,5.37
2018-11-06T14:53:10.676Z,5.27
2018-11-06T14:55:38.363Z,6.10
2018-11-06T14:58:05.972Z,5.13
2018-11-06T15:00:33.637Z,5.90
2018-11-06T15:03:01.335Z,5.20
2018-11-06T15:05:28.954Z,5.43
2018-11-06T15:07:56.575Z,6.23
2018-11-06T15:10:24.198Z,5.43
2018-11-06T15:12:51.896Z,5.80
2018-11-06T15:15:19.428Z,4.63
2018-11-06T15:17:47.631Z,5.10
2018-11-06T15:20:16.545Z,5.07
2018-11-06T15:22:44.665Z,5.87
2018-11-06T15:25:12.890Z,5.57
2018-11-06T15:27:40.659Z,5.30
2018-11-06T15:30:10.289Z,5.80
2018-11-06T15:32:38.121Z,5.20
2018-11-06T15:35:06.669Z,5.43
2018-11-06T15:37:34.745Z,5.50
2018-11-06T15:40:02.413Z,5.40
2018-11-06T15:42:30.477Z,5.83
2018-11-06T15:44:58.062Z,4.70
2018-11-06T15:47:25.684Z,6.43
2018-11-06T15:49:53.440Z,6.40
2018-11-06T15:52:21.084Z,5.50
2018-11-06T15:54:48.699Z,5.70
2018-11-06T15:57:16.373Z,5.00
2018-11-06T15:59:44.020Z,5.20
2018-11-06T16:02:11.713Z,5.33
2018-11-06T16:04:39.268Z,5.53
2018-11-06T16:07:07.113Z,5.40
2018-11-06T16:09:34.781Z,5.13
2018-11-06T16:12:02.497Z,5.10
2018-11-06T16:14:30.114Z,5.13
2018-11-06T16:16:57.721Z,5.00
2018-11-06T16:19:25.522Z,4.80
2018-11-06T16:21:53.114Z,5.07
2018-11-06T16:24:20.715Z,5.30
2018-11-06T16:26:48.424Z,4.77
2018-11-06T16:29:16.049Z,4.60
2018-11-06T16:31:44.253Z,4.73
2018-11-06T16:34:11.818Z,5.40
2018-11-06T16:36:39.441Z,5.20
2018-11-06T16:39:08.468Z,5.30
2018-11-06T16:41:36.140Z,4.73
2018-11-06T16:44:03.840Z,6.10
2018-11-06T16:46:31.514Z,5.13
2018-11-06T16:48:59.205Z,5.57
2018-11-06T16:51:26.846Z,5.03
2018-11-06T16:53:54.465Z,5.13
2018-11-06T16:56:22.260Z,5.80
2018-11-06T16:58:49.855Z,5.43
2018-11-06T17:01:17.681Z,4.50
2018-11-06T17:03:45.116Z,4.80
2018-11-06T17:06:18.376Z,4.97
2018-11-06T17:08:46.026Z,4.77
2018-11-06T17:11:13.673Z,4.57
2018-11-06T17:13:41.305Z,4.70
2018-11-06T17:16:08.956Z,5.60
2018-11-06T17:18:36.589Z,4.93
2018-11-06T17:21:04.325Z,5.13
2018-11-06T17:23:31.939Z,5.37
2018-11-06T17:25:59.616Z,6.77
2018-11-06T17:28:27.415Z,4.83
2018-11-06T17:30:55.027Z,5.00
2018-11-06T17:33:22.793Z,4.53
2018-11-06T17:35:50.545Z,4.67
2018-11-06T17:38:18.260Z,5.17
2018-11-06T17:40:46.005Z,4.37
2018-11-06T17:43:13.646Z,4.60
2018-11-06T17:45:41.352Z,4.53
2018-11-06T17:48:09.016Z,4.60
2018-11-06T17:50:36.683Z,4.97
2018-11-06T17:53:04.329Z,4.87
2018-11-06T17:55:32.012Z,4.47
2018-11-06T17:57:59.869Z,4.37
2018-11-06T18:00:27.565Z,4.00
2018-11-06T18:02:55.194Z,5.60
2018-11-06T18:05:24.286Z,5.23
2018-11-06T18:07:51.944Z,5.67
2018-11-06T18:10:20.208Z,6.53
2018-11-06T18:12:47.823Z,6.50
2018-11-06T18:15:15.449Z,5.57
2018-11-06T18:17:43.544Z,4.80
2018-11-06T18:20:12.188Z,4.53
2018-11-06T18:22:40.673Z,5.53
2018-11-06T18:25:08.917Z,5.23
2018-11-06T18:27:36.483Z,5.10
2018-11-06T18:30:05.028Z,4.63
2018-11-06T18:32:32.714Z,5.20
2018-11-06T18:35:00.612Z,5.07
2018-11-06T18:37:28.212Z,5.03
2018-11-06T18:39:55.813Z,5.30
2018-11-06T18:42:23.440Z,5.70
2018-11-06T18:44:51.081Z,5.40
2018-11-06T18:47:18.763Z,5.10
2018-11-06T18:49:46.440Z,5.10
2018-11-06T18:52:14.082Z,5.53
2018-11-06T18:54:41.739Z,5.70
2018-11-06T18:57:09.427Z,5.40
2018-11-06T18:59:37.847Z,5.37
2018-11-06T19:02:06.232Z,5.33
2018-11-06T19:04:33.962Z,5.77
2018-11-06T19:07:01.552Z,5.10
2018-11-06T19:09:29.162Z,4.77
2018-11-06T19:11:56.778Z,4.60
2018-11-06T19:14:24.478Z,5.60
2018-11-06T19:16:52.366Z,4.90
2018-11-06T19:19:19.937Z,5.10
2018-11-06T19:21:47.573Z,5.03
2018-11-06T19:24:15.196Z,4.70
2018-11-06T19:26:42.910Z,5.80
2018-11-06T19:29:10.504Z,5.87
2018-11-06T19:31:38.240Z,4.97
2018-11-06T19:34:05.928Z,5.30
2018-11-06T19:36:33.609Z,5.03
2018-11-06T19:39:01.353Z,4.90
2018-11-06T19:41:28.956Z,4.60
2018-11-06T19:43:56.613Z,4.83
2018-11-06T19:46:24.220Z,4.97
2018-11-06T19:48:51.880Z,4.77
2018-11-06T19:51:19.472Z,4.67
2018-11-06T19:53:47.181Z,5.60
2018-11-06T19:56:14.809Z,5.03
2018-11-06T19:58:42.434Z,5.33
2018-11-06T20:01:10.168Z,5.47
2018-11-06T20:03:37.792Z,5.40
2018-11-06T20:06:05.873Z,5.33
2018-11-06T20:08:33.435Z,5.30
2018-11-06T20:11:01.055Z,4.80
2018-11-06T20:13:28.691Z,5.20
2018-11-06T20:15:56.355Z,5.40
2018-11-06T20:18:24.159Z,6.20
2018-11-06T20:20:51.796Z,4.90
2018-11-06T20:23:20.486Z,4.77
2018-11-06T20:25:49.211Z,4.47
2018-11-06T20:28:17.504Z,5.67
2018-11-06T20:30:45.516Z,4.60
2018-11-06T20:33:13.157Z,5.10
2018-11-06T20:35:41.462Z,5.60
2018-11-06T20:38:10.034Z,5.07
2018-11-06T20:40:38.715Z,4.40
2018-11-06T20:43:06.957Z,5.63
2018-11-06T20:45:34.578Z,5.33
2018-11-06T20:48:03.033Z,4.33
2018-11-06T20:50:31.590Z,4.47
2018-11-06T20:52:59.875Z,4.50
2018-11-06T20:55:27.557Z,4.63
2018-11-06T20:57:55.252Z,5.40
2018-11-06T21:00:28.367Z,5.00
2018-11-06T21:02:57.441Z,4.23
2018-11-06T21:05:25.183Z,4.90
2018-11-06T21:07:52.901Z,4.27
2018-11-06T21:10:22.191Z,5.10
2018-11-06T21:12:50.114Z,4.67
2018-11-06T21:15:17.847Z,4.40
2018-11-06T21:17:45.554Z,5.00
2018-11-06T21:20:14.283Z,5.47
2018-11-06T21:22:42.489Z,4.70
2018-11-06T21:25:10.624Z,4.50
2018-11-06T21:27:39.072Z,5.20
2018-11-06T21:30:09.528Z,4.50
2018-11-06T21:32:37.858Z,5.00
2018-11-06T21:35:06.137Z,5.37
2018-11-06T21:37:34.269Z,5.37
2018-11-06T21:40:01.937Z,4.10
2018-11-06T21:42:29.937Z,4.47
2018-11-06T21:44:58.040Z,4.50
2018-11-06T21:47:26.607Z,5.30
2018-11-06T21:49:54.295Z,4.57
2018-11-06T21:52:21.942Z,4.40
2018-11-06T21:54:49.931Z,5.37
2018-11-06T21:57:17.522Z,4.77
2018-11-06T21:59:45.504Z,4.53
2018-11-06T22:02:13.221Z,4.17
2018-11-06T22:04:41.022Z,5.07
2018-11-06T22:07:09.043Z,4.70
2018-11-06T22:09:36.771Z,5.27
2018-11-06T22:12:05.150Z,4.30
2018-11-06T22:14:33.090Z,4.10
2018-11-06T22:17:00.708Z,4.00
2018-11-06T22:19:28.335Z,4.60
2018-11-06T22:21:56.412Z,5.17
2018-11-06T22:24:24.459Z,5.13
2018-11-06T22:26:52.533Z,4.07
2018-11-06T22:29:20.698Z,4.40
2018-11-06T22:31:48.668Z,4.23
2018-11-06T22:34:16.635Z,4.73
2018-11-06T22:36:45.074Z,4.53
2018-11-06T22:39:13.070Z,5.27
2018-11-06T22:41:41.042Z,4.80
2018-11-06T22:44:09.297Z,4.00
2018-11-06T22:46:37.288Z,5.00
2018-11-06T22:49:05.860Z,3.93
2018-11-06T22:51:33.856Z,4.80
2018-11-06T22:54:01.494Z,4.37
2018-11-06T22:56:29.222Z,4.90
2018-11-06T22:58:57.389Z,4.70
2018-11-06T23:01:25.801Z,3.83
2018-11-06T23:03:54.139Z,4.30
2018-11-06T23:06:21.973Z,4.30
2018-11-06T23:08:50.079Z,4.37
2018-11-06T23:11:17.671Z,4.70
2018-11-06T23:13:45.527Z,4.17
2018-11-06T23:16:13.792Z,3.87
2018-11-06T23:18:41.413Z,4.33
2018-11-06T23:21:09.467Z,3.80
2018-11-06T23:23:37.843Z,4.37
2018-11-06T23:26:05.505Z,4.30
2018-11-06T23:28:33.123Z,4.10
2018-11-06T23:31:01.111Z,4.47
2018-11-06T23:33:29.068Z,4.17
2018-11-06T23:35:56.969Z,4.70
2018-11-06T23:38:25.087Z,4.23
2018-11-06T23:40:52.831Z,3.93
2018-11-06T23:43:20.696Z,4.43
2018-11-06T23:45:48.321Z,4.13
2018-11-06T23:48:15.970Z,3.87
2018-11-06T23:50:43.548Z,3.90
2018-11-06T23:53:11.224Z,4.07
2018-11-06T23:55:38.896Z,3.77
2018-11-06T23:58:06.568Z,4.20
